Time;durP1;ratioP1;P1;durP2;ratioP2;P2;SDS_P1;SDS_P2;PMS_P1;PMS_P2;Temp;Humidity;BMP_temperature;BMP_pressure;BME280_temperature;BME280_humidity;BME280_pressure;Samples;Min_cycle;Max_cycle;Signal;HPM_P1;HPM_P2
2022/10/24 00:00:58;;;;;;;0.40;0.40;;;13.80;99.90;;;;;;5051646;28;20437;-65
2022/10/24 00:03:49;;;;;;;0.40;0.40;;;13.80;99.90;;;;;;5051119;28;20202;-66
2022/10/24 00:06:37;;;;;;;0.40;0.40;;;13.80;99.90;;;;;;5051087;28;20559;-65
2022/10/24 00:09:25;;;;;;;0.40;0.40;;;13.70;99.90;;;;;;5051320;28;20516;-65
2022/10/24 00:12:13;;;;;;;0.40;0.40;;;13.70;99.90;;;;;;5051080;28;20524;-65
2022/10/24 00:15:01;;;;;;;0.40;0.40;;;13.80;99.90;;;;;;5053719;28;20417;-65
2022/10/24 00:17:49;;;;;;;0.40;0.40;;;13.80;99.90;;;;;;5055311;28;20416;-65
2022/10/24 00:20:38;;;;;;;0.40;0.40;;;13.80;99.90;;;;;;5052698;28;20280;-65
2022/10/24 00:23:26;;;;;;;0.40;0.40;;;13.70;99.90;;;;;;5052013;28;20502;-67
2022/10/24 00:26:15;;;;;;;0.40;0.40;;;13.70;99.90;;;;;;5054062;28;20425;-66
2022/10/24 00:29:04;;;;;;;0.40;0.40;;;13.70;99.90;;;;;;5054355;28;20474;-68
2022/10/24 00:31:52;;;;;;;0.40;0.40;;;13.70;99.90;;;;;;5055075;28;20560;-65
2022/10/24 00:34:40;;;;;;;0.40;0.40;;;13.60;99.90;;;;;;5054862;28;20193;-64
2022/10/24 00:37:30;;;;;;;0.40;0.40;;;13.70;99.90;;;;;;5055989;28;20519;-64
2022/10/24 00:40:19;;;;;;;0.33;0.33;;;13.80;99.90;;;;;;5054445;28;20430;-65
2022/10/24 00:43:13;;;;;;;0.40;0.40;;;13.70;99.90;;;;;;5055851;28;20858;-65
2022/10/24 00:46:02;;;;;;;0.40;0.40;;;13.70;99.90;;;;;;5055272;28;20428;-65
2022/10/24 00:48:53;;;;;;;0.40;0.40;;;13.60;99.90;;;;;;5055590;28;20519;-65
2022/10/24 00:51:42;;;;;;;0.40;0.40;;;13.50;99.90;;;;;;5054576;28;20902;-66
2022/10/24 00:54:31;;;;;;;0.40;0.40;;;13.60;99.90;;;;;;5054492;28;20426;-65
2022/10/24 00:57:24;;;;;;;0.40;0.40;;;13.50;99.90;;;;;;5043881;28;20780;-65
2022/10/24 01:00:16;;;;;;;0.40;0.40;;;13.60;99.90;;;;;;5034562;28;20433;-65
2022/10/24 01:03:04;;;;;;;0.40;0.40;;;13.60;99.90;;;;;;5020424;28;20576;-65
2022/10/24 01:06:18;;;;;;;0.40;0.40;;;13.60;99.90;;;;;;5031915;28;20459;-64
2022/10/24 01:09:16;;;;;;;0.40;0.40;;;13.60;99.90;;;;;;5034865;28;20543;-65
2022/10/24 01:12:19;;;;;;;0.40;0.40;;;13.60;99.90;;;;;;5034384;28;20511;-65
2022/10/24 01:15:13;;;;;;;0.40;0.40;;;13.60;99.90;;;;;;5034785;28;20486;-64
2022/10/24 01:18:07;;;;;;;0.40;0.40;;;13.60;99.90;;;;;;5035525;28;20514;-64
2022/10/24 01:21:08;;;;;;;0.40;0.40;;;13.60;99.90;;;;;;5034033;28;20425;-64
2022/10/24 01:24:36;;;;;;;0.40;0.40;;;13.60;99.90;;;;;;5033913;28;20499;-65
2022/10/24 01:27:41;;;;;;;0.40;0.40;;;13.60;99.90;;;;;;5033646;28;20555;-66
2022/10/24 01:30:41;;;;;;;0.40;0.40;;;13.60;99.90;;;;;;5034638;28;20435;-64
2022/10/24 01:33:34;;;;;;;0.40;0.40;;;13.60;99.90;;;;;;5034703;28;20457;-66
2022/10/24 01:36:30;;;;;;;0.40;0.40;;;13.60;99.90;;;;;;5033850;28;20436;-64
2022/10/24 01:39:21;;;;;;;0.40;0.40;;;13.60;99.90;;;;;;5033337;28;20473;-66
2022/10/24 01:42:12;;;;;;;0.40;0.40;;;13.70;99.90;;;;;;5034582;28;21044;-65
2022/10/24 01:45:02;;;;;;;0.40;0.40;;;13.70;99.90;;;;;;5034014;28;20507;-65
2022/10/24 01:47:55;;;;;;;0.40;0.40;;;13.60;99.90;;;;;;5034786;28;20448;-64
2022/10/24 01:50:47;;;;;;;0.40;0.40;;;13.70;99.90;;;;;;5034175;28;20428;-66
2022/10/24 01:53:36;;;;;;;0.40;0.40;;;13.60;99.90;;;;;;5034882;28;20233;-65
2022/10/24 01:56:25;;;;;;;0.40;0.40;;;13.70;99.90;;;;;;5034055;28;20441;-65
2022/10/24 01:59:41;;;;;;;0.40;0.40;;;13.70;99.90;;;;;;5034452;28;20528;-64
2022/10/24 02:02:34;;;;;;;0.40;0.40;;;13.60;99.90;;;;;;5034427;28;20429;-66
2022/10/24 02:05:27;;;;;;;0.40;0.40;;;13.50;99.90;;;;;;5034540;28;20421;-65
2022/10/24 02:08:19;;;;;;;0.40;0.40;;;13.50;99.90;;;;;;5033656;28;20530;-64
2022/10/24 02:11:08;;;;;;;0.40;0.40;;;13.50;99.90;;;;;;5033619;28;20566;-66
2022/10/24 02:14:00;;;;;;;0.40;0.40;;;13.50;99.90;;;;;;5035884;28;20551;-65
2022/10/24 02:16:48;;;;;;;0.40;0.40;;;13.50;99.90;;;;;;5036302;28;20571;-66
2022/10/24 02:19:37;;;;;;;0.40;0.40;;;13.50;99.90;;;;;;5035627;28;20512;-66
2022/10/24 02:22:30;;;;;;;0.40;0.40;;;13.50;99.90;;;;;;5036443;28;20471;-65
2022/10/24 02:25:26;;;;;;;0.40;0.40;;;13.40;99.90;;;;;;5035964;28;20954;-67
2022/10/24 02:28:18;;;;;;;0.40;0.40;;;13.40;99.90;;;;;;5036293;28;20426;-64
2022/10/24 02:31:10;;;;;;;0.40;0.40;;;13.40;99.90;;;;;;5035074;28;20507;-64
2022/10/24 02:34:00;;;;;;;0.40;0.40;;;13.50;99.90;;;;;;5020475;28;21015;-66
2022/10/24 02:36:52;;;;;;;0.40;0.40;;;13.50;99.90;;;;;;5040402;28;20429;-65
2022/10/24 02:39:46;;;;;;;0.40;0.40;;;13.40;99.90;;;;;;5043405;28;20996;-66
2022/10/24 02:42:35;;;;;;;0.40;0.40;;;13.50;99.90;;;;;;5047745;28;20472;-65
2022/10/24 02:45:24;;;;;;;0.40;0.40;;;13.50;99.90;;;;;;5046147;28;20439;-66
2022/10/24 02:48:16;;;;;;;0.40;0.40;;;13.40;99.90;;;;;;5047009;28;20609;-65
2022/10/24 02:51:05;;;;;;;0.40;0.40;;;13.40;99.90;;;;;;5050280;28;20536;-65
2022/10/24 02:53:53;;;;;;;0.40;0.40;;;13.40;99.90;;;;;;5048450;28;20469;-65
2022/10/24 02:56:48;;;;;;;0.40;0.40;;;13.30;99.90;;;;;;5057061;28;20885;-67
2022/10/24 02:59:36;;;;;;;0.40;0.40;;;13.40;99.90;;;;;;5072246;28;20455;-67
2022/10/24 03:02:24;;;;;;;0.40;0.40;;;13.40;99.90;;;;;;5062367;28;20690;-64
2022/10/24 03:05:12;;;;;;;0.40;0.40;;;13.40;99.90;;;;;;5064672;28;20449;-65
2022/10/24 03:08:00;;;;;;;0.40;0.40;;;13.40;99.90;;;;;;5063324;28;20456;-65
2022/10/24 03:10:48;;;;;;;0.40;0.40;;;13.50;99.90;;;;;;5065898;28;20503;-66
2022/10/24 03:13:37;;;;;;;0.40;0.40;;;13.40;99.90;;;;;;5066491;28;20456;-64
2022/10/24 03:16:26;;;;;;;0.40;0.40;;;13.50;99.90;;;;;;5067065;28;20428;-66
2022/10/24 03:19:14;;;;;;;0.40;0.40;;;13.30;99.90;;;;;;5070820;28;20456;-65
2022/10/24 03:22:02;;;;;;;0.40;0.40;;;13.40;99.90;;;;;;5069310;28;20479;-66
2022/10/24 03:24:50;;;;;;;0.40;0.40;;;13.40;99.90;;;;;;5068614;28;20470;-67
2022/10/24 03:27:42;;;;;;;0.40;0.40;;;13.30;99.90;;;;;;5065310;28;20517;-67
2022/10/24 03:30:32;;;;;;;0.30;0.30;;;13.40;99.90;;;;;;5068207;28;20806;-66
2022/10/24 03:33:20;;;;;;;0.40;0.40;;;13.40;99.90;;;;;;5067471;28;20462;-67
2022/10/24 03:36:08;;;;;;;0.40;0.40;;;13.40;99.90;;;;;;5071295;28;20424;-67
2022/10/24 03:38:56;;;;;;;0.40;0.40;;;13.40;99.90;;;;;;5073946;28;20491;-67
2022/10/24 03:41:44;;;;;;;0.40;0.40;;;13.40;99.90;;;;;;5067410;28;20479;-65
2022/10/24 03:44:32;;;;;;;0.40;0.40;;;13.40;99.90;;;;;;5067025;28;20472;-67
2022/10/24 03:47:22;;;;;;;0.40;0.40;;;13.40;99.90;;;;;;5064578;28;20804;-67
2022/10/24 03:50:10;;;;;;;0.40;0.40;;;13.40;99.90;;;;;;5066674;28;20459;-65
2022/10/24 03:52:58;;;;;;;0.40;0.40;;;13.40;99.90;;;;;;5067659;28;20440;-68
2022/10/24 03:55:46;;;;;;;0.40;0.40;;;13.40;99.90;;;;;;5066441;28;20455;-65
2022/10/24 03:58:34;;;;;;;0.40;0.40;;;13.40;99.90;;;;;;5021533;28;20513;-65
2022/10/24 04:01:23;;;;;;;0.40;0.40;;;13.40;99.90;;;;;;5020094;28;20450;-65
2022/10/24 04:04:12;;;;;;;0.40;0.40;;;13.40;99.90;;;;;;5022941;28;20498;-66
2022/10/24 04:07:00;;;;;;;0.40;0.40;;;13.40;99.90;;;;;;5022620;28;20922;-65
2022/10/24 04:09:48;;;;;;;0.40;0.40;;;13.40;99.90;;;;;;5022603;28;20432;-66
2022/10/24 04:12:37;;;;;;;0.40;0.40;;;13.40;99.90;;;;;;5025155;28;20438;-66
2022/10/24 04:15:25;;;;;;;0.40;0.40;;;13.40;99.90;;;;;;5028620;28;20528;-66
2022/10/24 04:18:13;;;;;;;0.40;0.40;;;13.30;99.90;;;;;;5026329;28;20846;-65
2022/10/24 04:21:02;;;;;;;0.40;0.40;;;13.30;99.90;;;;;;5027004;28;20509;-65
2022/10/24 04:23:50;;;;;;;0.40;0.40;;;13.30;99.90;;;;;;5027883;28;20426;-66
2022/10/24 04:26:38;;;;;;;0.40;0.40;;;13.30;99.90;;;;;;5028850;28;20458;-65
2022/10/24 04:29:27;;;;;;;0.30;0.30;;;13.30;99.90;;;;;;5026131;28;20429;-65
2022/10/24 04:32:15;;;;;;;0.40;0.40;;;13.30;99.90;;;;;;5024781;28;20462;-66
2022/10/24 04:35:04;;;;;;;0.40;0.40;;;13.30;99.90;;;;;;5027872;28;20469;-65
2022/10/24 04:37:53;;;;;;;0.40;0.40;;;13.30;99.90;;;;;;5023454;28;20966;-66
2022/10/24 04:40:45;;;;;;;0.40;0.40;;;13.20;99.90;;;;;;5024525;28;20438;-67
2022/10/24 04:43:33;;;;;;;0.40;0.40;;;13.20;99.90;;;;;;5027796;28;20457;-67
2022/10/24 04:46:21;;;;;;;0.40;0.40;;;13.20;99.90;;;;;;5026574;28;20518;-67
2022/10/24 04:49:09;;;;;;;0.40;0.40;;;13.20;99.90;;;;;;5027133;28;20454;-67
2022/10/24 04:51:57;;;;;;;0.40;0.40;;;13.30;99.90;;;;;;5029708;28;20629;-67
2022/10/24 04:54:47;;;;;;;0.30;0.30;;;13.30;99.90;;;;;;5025195;28;20473;-67
2022/10/24 04:57:35;;;;;;;0.40;0.40;;;13.20;99.90;;;;;;5057645;28;20459;-66
2022/10/24 05:00:23;;;;;;;0.40;0.40;;;13.20;99.90;;;;;;5071149;28;20442;-66
2022/10/24 05:03:11;;;;;;;0.30;0.30;;;13.20;99.90;;;;;;5073853;28;20456;-65
2022/10/24 05:05:59;;;;;;;0.40;0.40;;;13.20;99.90;;;;;;5074270;28;20428;-65
2022/10/24 05:08:47;;;;;;;0.40;0.40;;;13.20;99.90;;;;;;5071537;28;20432;-66
2022/10/24 05:11:36;;;;;;;0.40;0.40;;;13.20;99.90;;;;;;5072014;28;20494;-65
2022/10/24 05:14:24;;;;;;;0.40;0.40;;;13.20;99.90;;;;;;5071544;28;20523;-67
2022/10/24 05:17:13;;;;;;;0.40;0.40;;;13.20;99.90;;;;;;5065441;28;20430;-67
2022/10/24 05:20:01;;;;;;;0.40;0.40;;;13.20;99.90;;;;;;5060273;28;20458;-67
2022/10/24 05:22:49;;;;;;;0.40;0.40;;;13.20;99.90;;;;;;5065766;28;20527;-67
2022/10/24 05:25:37;;;;;;;0.40;0.40;;;13.20;99.90;;;;;;5070200;28;20456;-65
2022/10/24 05:28:27;;;;;;;0.40;0.40;;;13.20;99.90;;;;;;5065672;28;20434;-71
2022/10/24 05:31:15;;;;;;;0.40;0.40;;;13.20;99.90;;;;;;5073785;28;20483;-67
2022/10/24 05:34:03;;;;;;;0.40;0.40;;;14.70;99.90;;;;;;5072208;28;20809;-65
2022/10/24 05:36:51;;;;;;;0.40;0.40;;;13.10;99.90;;;;;;5077154;28;20471;-66
2022/10/24 05:39:39;;;;;;;0.40;0.40;;;13.20;99.90;;;;;;5076747;28;20439;-64
2022/10/24 05:42:27;;;;;;;0.40;0.40;;;13.10;99.90;;;;;;5074346;28;20519;-66
2022/10/24 05:45:17;;;;;;;0.40;0.40;;;13.10;99.90;;;;;;5071135;28;20459;-66
2022/10/24 05:48:05;;;;;;;0.40;0.40;;;13.20;99.90;;;;;;5056780;28;20514;-67
2022/10/24 05:50:57;;;;;;;0.40;0.40;;;14.10;99.90;;;;;;5056869;28;20430;-66
2022/10/24 05:53:45;;;;;;;0.40;0.40;;;13.20;99.90;;;;;;5056913;28;20424;-66
2022/10/24 05:56:33;;;;;;;0.30;0.30;;;13.20;99.90;;;;;;5054914;28;20936;-66
2022/10/24 05:59:21;;;;;;;0.40;0.40;;;13.10;99.90;;;;;;5056129;28;20511;-66
2022/10/24 06:02:16;;;;;;;0.40;0.40;;;13.10;99.90;;;;;;5057188;28;20517;-66
2022/10/24 06:05:05;;;;;;;0.40;0.40;;;13.10;99.90;;;;;;5064655;28;20878;-65
2022/10/24 06:07:53;;;;;;;0.40;0.40;;;13.20;99.90;;;;;;5038231;28;20530;-65
2022/10/24 06:10:41;;;;;;;0.40;0.40;;;13.20;99.90;;;;;;5057171;28;20451;-66
2022/10/24 06:13:30;;;;;;;0.40;0.40;;;13.20;99.90;;;;;;5061538;28;20460;-66
2022/10/24 06:16:23;;;;;;;0.40;0.40;;;13.00;99.90;;;;;;5051374;28;20496;-66
2022/10/24 06:19:13;;;;;;;0.40;0.40;;;13.30;99.90;;;;;;5051724;28;20459;-65
2022/10/24 06:22:01;;;;;;;0.40;0.40;;;13.20;99.90;;;;;;5052112;28;20449;-66
2022/10/24 06:24:49;;;;;;;0.40;0.40;;;13.20;99.90;;;;;;5052460;28;20489;-64
2022/10/24 06:27:37;;;;;;;0.40;0.40;;;13.20;99.90;;;;;;5069727;28;20448;-65
2022/10/24 06:30:25;;;;;;;0.30;0.30;;;13.20;99.90;;;;;;5057136;28;20512;-65
2022/10/24 06:33:13;;;;;;;0.40;0.40;;;13.30;99.90;;;;;;5056009;28;20456;-65
2022/10/24 06:36:04;;;;;;;0.40;0.40;;;13.30;99.90;;;;;;5054709;28;20464;-65
2022/10/24 06:38:53;;;;;;;0.40;0.40;;;13.30;99.90;;;;;;5055052;28;20824;-65
2022/10/24 06:41:41;;;;;;;0.40;0.40;;;13.40;99.90;;;;;;5054290;28;20589;-65
2022/10/24 06:44:30;;;;;;;0.40;0.40;;;13.50;99.90;;;;;;5054479;28;20952;-65
2022/10/24 06:47:18;;;;;;;0.40;0.40;;;13.50;99.90;;;;;;5053723;28;20424;-65
2022/10/24 06:50:07;;;;;;;0.40;0.40;;;13.60;99.90;;;;;;5054218;28;20420;-65
2022/10/24 06:52:57;;;;;;;0.40;0.40;;;13.60;99.90;;;;;;5053958;28;20551;-65
2022/10/24 06:55:45;;;;;;;0.37;0.37;;;13.60;99.90;;;;;;5054502;28;20471;-65
2022/10/24 06:58:34;;;;;;;0.40;0.40;;;13.70;99.90;;;;;;5014654;28;20425;-65
2022/10/24 07:01:24;;;;;;;0.40;0.40;;;13.80;99.90;;;;;;5013985;28;20449;-65
2022/10/24 07:04:12;;;;;;;0.40;0.40;;;13.80;99.90;;;;;;5015038;28;20425;-65
2022/10/24 07:07:00;;;;;;;0.40;0.40;;;13.90;99.90;;;;;;5015452;28;20541;-65
2022/10/24 07:09:54;;;;;;;0.40;0.40;;;13.90;99.90;;;;;;5014399;28;20430;-65
2022/10/24 07:12:42;;;;;;;0.40;0.40;;;13.90;99.90;;;;;;5014874;28;20917;-65
2022/10/24 07:15:31;;;;;;;0.40;0.40;;;14.90;99.90;;;;;;5017040;28;20542;-66
2022/10/24 07:18:19;;;;;;;0.40;0.40;;;14.10;99.90;;;;;;5020039;28;20792;-66
2022/10/24 07:21:10;;;;;;;0.40;0.40;;;14.10;99.90;;;;;;5016496;28;21033;-66
2022/10/24 07:23:59;;;;;;;0.40;0.40;;;14.20;99.90;;;;;;5015761;28;20536;-66
2022/10/24 07:26:49;;;;;;;0.40;0.40;;;14.10;99.90;;;;;;5014552;28;20502;-66
2022/10/24 07:29:38;;;;;;;0.40;0.40;;;14.20;99.90;;;;;;5013741;28;20458;-66
2022/10/24 07:32:27;;;;;;;0.40;0.40;;;14.40;99.90;;;;;;5013373;28;20548;-66
2022/10/24 07:35:15;;;;;;;0.40;0.40;;;14.40;99.90;;;;;;5014533;28;20825;-66
2022/10/24 07:38:03;;;;;;;0.40;0.40;;;14.50;99.90;;;;;;5015087;28;20437;-66
2022/10/24 07:40:51;;;;;;;0.37;0.37;;;14.70;99.90;;;;;;5012985;28;20422;-66
2022/10/24 07:43:41;;;;;;;0.40;0.40;;;14.70;99.90;;;;;;5018538;28;20521;-66
2022/10/24 07:46:30;;;;;;;0.40;0.40;;;14.90;99.90;;;;;;5025107;28;20496;-66
2022/10/24 07:49:18;;;;;;;0.40;0.40;;;14.90;99.90;;;;;;5033247;28;20944;-66
2022/10/24 07:52:06;;;;;;;0.30;0.30;;;15.00;99.90;;;;;;5032370;28;20596;-66
2022/10/24 07:54:54;;;;;;;0.40;0.40;;;15.10;99.90;;;;;;5032622;28;20563;-66
2022/10/24 07:57:42;;;;;;;0.30;0.30;;;15.20;99.90;;;;;;5046713;28;20702;-66
2022/10/24 08:00:33;;;;;;;0.40;0.40;;;15.20;99.90;;;;;;5052285;28;20589;-66
2022/10/24 08:03:21;;;;;;;0.40;0.40;;;15.30;99.90;;;;;;5052083;28;20205;-66
2022/10/24 08:06:12;;;;;;;0.40;0.40;;;15.30;99.90;;;;;;5039220;28;20195;-66
2022/10/24 08:09:00;;;;;;;0.40;0.40;;;15.30;99.90;;;;;;5032398;28;20443;-66
2022/10/24 08:11:48;;;;;;;0.40;0.40;;;15.50;99.90;;;;;;5032148;28;20222;-66
2022/10/24 08:14:37;;;;;;;0.40;0.40;;;15.50;99.90;;;;;;5033044;28;20202;-66
2022/10/24 08:17:26;;;;;;;0.40;0.40;;;15.50;99.90;;;;;;5026429;28;20218;-67
2022/10/24 08:20:14;;;;;;;0.30;0.30;;;15.60;99.90;;;;;;5032381;28;20209;-65
2022/10/24 08:23:03;;;;;;;0.40;0.40;;;15.60;99.90;;;;;;5032616;28;20348;-66
2022/10/24 08:25:51;;;;;;;0.40;0.40;;;15.70;99.90;;;;;;5032115;28;20248;-66
2022/10/24 08:28:39;;;;;;;0.30;0.30;;;15.70;99.90;;;;;;5032812;28;20284;-66
2022/10/24 08:31:27;;;;;;;0.40;0.40;;;15.80;99.90;;;;;;5031909;28;20970;-66
2022/10/24 08:34:17;;;;;;;0.40;0.40;;;15.90;99.90;;;;;;5032466;28;20275;-66
2022/10/24 08:37:05;;;;;;;0.40;0.40;;;16.00;99.90;;;;;;5031938;28;20225;-66
2022/10/24 08:39:54;;;;;;;0.30;0.30;;;16.00;99.90;;;;;;5031916;28;20276;-66
2022/10/24 08:42:43;;;;;;;0.40;0.40;;;16.20;99.90;;;;;;5032148;28;20222;-66
2022/10/24 08:45:38;;;;;;;0.40;0.40;;;16.20;99.90;;;;;;5032025;28;20215;-66
2022/10/24 08:48:29;;;;;;;0.40;0.40;;;16.20;99.90;;;;;;5032684;28;20209;-66
2022/10/24 08:51:30;;;;;;;0.30;0.30;;;16.40;99.90;;;;;;5035762;28;20340;-66
2022/10/24 08:54:21;;;;;;;0.40;0.40;;;16.40;99.90;;;;;;5036400;28;20233;-66
2022/10/24 08:57:19;;;;;;;0.40;0.40;;;16.40;99.90;;;;;;5045900;28;20874;-66
2022/10/24 09:00:26;;;;;;;0.40;0.40;;;16.40;99.90;;;;;;5052870;28;20204;-66
2022/10/24 09:03:20;;;;;;;0.40;0.40;;;16.50;99.90;;;;;;5033785;28;20304;-65
2022/10/24 09:06:31;;;;;;;0.40;0.40;;;16.60;99.90;;;;;;5018319;28;20288;-66
2022/10/24 09:09:25;;;;;;;0.40;0.40;;;16.60;99.90;;;;;;5054207;28;20205;-66
2022/10/24 09:12:14;;;;;;;0.40;0.40;;;16.70;99.90;;;;;;5056218;28;20766;-66
2022/10/24 09:15:08;;;;;;;0.40;0.40;;;16.70;99.90;;;;;;5057213;28;20271;-66
2022/10/24 09:17:58;;;;;;;0.40;0.40;;;16.70;99.90;;;;;;5055835;28;20280;-66
2022/10/24 09:20:47;;;;;;;0.40;0.40;;;16.80;99.90;;;;;;5042359;28;20210;-66
2022/10/24 09:23:38;;;;;;;0.40;0.40;;;16.80;99.90;;;;;;5035913;28;20285;-66
2022/10/24 09:26:29;;;;;;;0.40;0.40;;;16.80;99.90;;;;;;5036375;28;20628;-69
2022/10/24 09:29:17;;;;;;;0.40;0.40;;;16.80;99.90;;;;;;5036050;28;20335;-66
2022/10/24 09:32:14;;;;;;;0.40;0.40;;;16.90;99.90;;;;;;5036493;28;20309;-66
2022/10/24 09:35:06;;;;;;;0.40;0.40;;;16.90;99.90;;;;;;5036640;28;20328;-65
2022/10/24 09:37:57;;;;;;;0.40;0.40;;;17.00;99.90;;;;;;5035909;28;20233;-66
2022/10/24 09:40:50;;;;;;;0.40;0.40;;;17.00;99.90;;;;;;5028336;28;20201;-67
2022/10/24 09:43:49;;;;;;;0.30;0.30;;;17.00;99.90;;;;;;5023043;28;20640;-67
2022/10/24 09:46:43;;;;;;;0.40;0.40;;;17.10;99.90;;;;;;5026679;28;20229;-67
2022/10/24 09:49:36;;;;;;;0.40;0.40;;;17.10;99.90;;;;;;5029428;28;20586;-67
2022/10/24 09:52:28;;;;;;;0.40;0.40;;;17.20;99.90;;;;;;5022766;28;21223;-67
2022/10/24 09:55:20;;;;;;;0.43;0.43;;;17.20;99.90;;;;;;5022659;28;20633;-67
2022/10/24 09:58:19;;;;;;;0.40;0.40;;;17.20;99.90;;;;;;5024865;28;20257;-67
2022/10/24 10:01:19;;;;;;;0.40;0.40;;;17.20;99.90;;;;;;5023729;28;20241;-67
2022/10/24 10:04:15;;;;;;;0.40;0.40;;;17.20;99.90;;;;;;5025763;28;20210;-67
2022/10/24 10:07:09;;;;;;;0.40;0.40;;;17.30;99.90;;;;;;5034355;28;20277;-67
2022/10/24 10:10:00;;;;;;;0.32;0.32;;;17.30;99.90;;;;;;5034745;28;20262;-67
2022/10/24 10:12:56;;;;;;;0.32;0.32;;;17.40;99.90;;;;;;5034830;28;20284;-67
2022/10/24 10:15:48;;;;;;;0.40;0.40;;;17.50;99.90;;;;;;5035601;28;20208;-67
2022/10/24 10:18:45;;;;;;;0.40;0.40;;;17.50;99.90;;;;;;5034616;28;20234;-67
2022/10/24 10:21:52;;;;;;;0.40;0.40;;;17.50;99.90;;;;;;5036006;28;20226;-67
2022/10/24 10:24:44;;;;;;;0.40;0.40;;;17.60;99.90;;;;;;5038101;28;20213;-67
2022/10/24 10:27:36;;;;;;;0.52;0.52;;;17.60;99.90;;;;;;5042063;28;20195;-67
2022/10/24 10:30:24;;;;;;;0.40;0.40;;;17.60;99.90;;;;;;5036169;28;20588;-67
2022/10/24 10:33:20;;;;;;;0.40;0.40;;;17.70;99.90;;;;;;5053862;23;20277;-69
2022/10/24 10:36:15;;;;;;;0.98;0.98;;;17.70;99.90;;;;;;5035022;28;20706;-70
2022/10/24 10:39:23;;;;;;;0.40;0.40;;;17.70;99.90;;;;;;5033793;28;20637;-71
2022/10/24 10:42:16;;;;;;;0.40;0.40;;;17.70;99.90;;;;;;5033594;28;20572;-70
2022/10/24 10:45:15;;;;;;;0.40;0.40;;;17.70;99.90;;;;;;5033497;28;20966;-70
2022/10/24 10:48:18;;;;;;;0.40;0.40;;;17.70;99.90;;;;;;5042674;28;20190;-69
2022/10/24 10:51:16;;;;;;;0.40;0.40;;;17.70;99.90;;;;;;5032794;28;20233;-70
2022/10/24 10:54:15;;;;;;;0.40;0.40;;;17.70;99.90;;;;;;5032185;28;20234;-70
2022/10/24 10:57:08;;;;;;;0.40;0.40;;;17.70;99.90;;;;;;5032332;28;20709;-69
2022/10/24 11:00:01;;;;;;;0.40;0.40;;;17.70;99.90;;;;;;5032060;28;20279;-71
2022/10/24 11:03:05;;;;;;;0.40;0.40;;;17.80;99.90;;;;;;5032314;28;20217;-71
2022/10/24 11:06:04;;;;;;;0.40;0.40;;;17.80;99.90;;;;;;5038271;28;20402;-70
2022/10/24 11:09:17;;;;;;;0.40;0.40;;;17.80;99.90;;;;;;5032469;28;20204;-70
2022/10/24 11:12:12;;;;;;;0.40;0.40;;;17.80;99.90;;;;;;5032273;28;20238;-71
2022/10/24 11:15:04;;;;;;;0.40;0.40;;;17.80;99.90;;;;;;5032123;28;20275;-70
2022/10/24 11:17:56;;;;;;;0.40;0.40;;;17.80;99.90;;;;;;5032947;28;20257;-69
2022/10/24 11:20:50;;;;;;;0.40;0.40;;;17.90;99.90;;;;;;5032466;28;20247;-71
2022/10/24 11:23:43;;;;;;;0.40;0.40;;;17.90;99.90;;;;;;5032060;28;20816;-69
2022/10/24 11:26:35;;;;;;;0.40;0.40;;;17.90;99.90;;;;;;5032111;28;20261;-69
2022/10/24 11:29:30;;;;;;;0.40;0.40;;;18.00;99.90;;;;;;5032352;28;20285;-73
2022/10/24 11:32:26;;;;;;;0.40;0.40;;;18.00;99.90;;;;;;5032073;28;20376;-70
2022/10/24 11:35:21;;;;;;;0.40;0.40;;;18.00;99.90;;;;;;5031800;28;20277;-70
2022/10/24 11:38:14;;;;;;;0.40;0.40;;;18.10;99.90;;;;;;5031580;28;20253;-69
2022/10/24 11:41:19;;;;;;;0.50;0.50;;;18.10;99.90;;;;;;5031548;28;20336;-70
2022/10/24 11:44:22;;;;;;;0.50;0.50;;;18.10;99.90;;;;;;5031751;28;20309;-71
2022/10/24 11:47:36;;;;;;;0.40;0.40;;;18.10;99.90;;;;;;5032108;28;20197;-70
2022/10/24 11:50:33;;;;;;;0.40;0.40;;;18.20;99.90;;;;;;5031173;28;20285;-70
2022/10/24 11:53:44;;;;;;;0.40;0.40;;;18.30;99.90;;;;;;5031329;28;20299;-69
2022/10/24 11:56:40;;;;;;;0.40;0.40;;;18.20;99.90;;;;;;5031140;28;20212;-70
2022/10/24 11:59:29;;;;;;;0.50;0.50;;;18.30;99.90;;;;;;5031399;28;20276;-71
2022/10/24 12:02:38;;;;;;;0.40;0.40;;;18.30;99.90;;;;;;5031327;28;20348;-70
2022/10/24 12:05:40;;;;;;;0.40;0.40;;;18.30;99.90;;;;;;5031426;28;20193;-70
2022/10/24 12:08:44;;;;;;;0.40;0.40;;;18.40;99.90;;;;;;5031961;28;20194;-69
2022/10/24 12:11:52;;;;;;;0.40;0.40;;;18.50;99.90;;;;;;5031565;28;20581;-71
2022/10/24 12:15:06;;;;;;;0.40;0.40;;;18.50;99.90;;;;;;5031305;28;20848;-69
2022/10/24 12:18:07;;;;;;;0.40;0.40;;;18.50;99.90;;;;;;5031536;28;20303;-69
2022/10/24 12:21:01;;;;;;;0.40;0.40;;;18.60;99.90;;;;;;5031590;28;20194;-70
2022/10/24 12:23:54;;;;;;;0.40;0.40;;;18.60;99.90;;;;;;5032992;28;20249;-69
2022/10/24 12:26:55;;;;;;;0.40;0.40;;;18.50;99.90;;;;;;5035878;28;20580;-69
2022/10/24 12:29:43;;;;;;;0.40;0.40;;;18.60;99.90;;;;;;5035017;28;20642;-71
2022/10/24 12:32:38;;;;;;;0.40;0.40;;;18.60;99.90;;;;;;5035100;28;20222;-73
2022/10/24 12:35:57;;;;;;;0.40;0.40;;;18.60;99.90;;;;;;5035702;28;20198;-69
2022/10/24 12:39:08;;;;;;;0.40;0.40;;;18.70;99.90;;;;;;5035056;28;20218;-69
2022/10/24 12:41:58;;;;;;;0.40;0.40;;;18.70;99.90;;;;;;5035603;28;20226;-69
2022/10/24 12:44:49;;;;;;;0.40;0.40;;;18.70;99.90;;;;;;5036050;28;20291;-68
2022/10/24 12:47:39;;;;;;;0.40;0.40;;;18.90;99.90;;;;;;5036082;28;20198;-69
2022/10/24 12:50:56;;;;;;;0.40;0.40;;;18.90;99.90;;;;;;5035054;28;20281;-70
2022/10/24 12:54:05;;;;;;;0.40;0.40;;;19.10;99.90;;;;;;5035841;28;20202;-69
2022/10/24 12:57:23;;;;;;;0.40;0.40;;;19.10;99.90;;;;;;5045135;28;20572;-69
2022/10/24 13:00:24;;;;;;;0.40;0.40;;;19.30;99.90;;;;;;5054869;28;20320;-69
2022/10/24 13:03:21;;;;;;;0.40;0.40;;;19.30;99.90;;;;;;5055117;28;20307;-69
2022/10/24 13:06:16;;;;;;;0.40;0.40;;;19.30;99.90;;;;;;5056264;28;20335;-69
2022/10/24 13:09:23;;;;;;;0.40;0.40;;;19.30;99.90;;;;;;5055582;28;20197;-70
2022/10/24 13:12:39;;;;;;;0.40;0.40;;;19.30;99.90;;;;;;5054710;28;20438;-69
2022/10/24 13:15:37;;;;;;;0.40;0.40;;;19.20;99.90;;;;;;5055407;28;20335;-71
2022/10/24 13:18:43;;;;;;;0.40;0.40;;;19.20;99.90;;;;;;5055353;28;20881;-69
2022/10/24 13:21:34;;;;;;;0.40;0.40;;;19.20;99.90;;;;;;5054695;28;20658;-69
2022/10/24 13:24:33;;;;;;;0.40;0.40;;;19.20;99.90;;;;;;5055081;28;20285;-70
2022/10/24 13:27:30;;;;;;;0.40;0.40;;;19.30;99.90;;;;;;5054204;28;20235;-69
2022/10/24 13:30:27;;;;;;;0.40;0.40;;;19.30;99.90;;;;;;5055148;28;20208;-68
2022/10/24 13:33:40;;;;;;;0.40;0.40;;;19.20;99.90;;;;;;5054680;28;20282;-68
2022/10/24 13:36:32;;;;;;;0.40;0.40;;;18.00;99.90;;;;;;5054552;28;20200;-68
2022/10/24 13:39:26;;;;;;;0.40;0.40;;;19.30;99.90;;;;;;5054210;28;20218;-70
2022/10/24 13:42:31;;;;;;;0.40;0.40;;;19.40;99.90;;;;;;5054291;28;20304;-70
2022/10/24 13:45:44;;;;;;;0.40;0.40;;;19.30;99.90;;;;;;5052975;28;20294;-70
2022/10/24 13:48:36;;;;;;;0.40;0.40;;;19.30;99.90;;;;;;5054309;28;20619;-69
2022/10/24 13:51:35;;;;;;;0.40;0.40;;;19.20;99.90;;;;;;5053787;28;20197;-70
2022/10/24 13:54:28;;;;;;;0.40;0.40;;;19.30;99.90;;;;;;5054256;28;20307;-69
2022/10/24 13:57:29;;;;;;;0.40;0.40;;;19.20;99.90;;;;;;5041334;28;20272;-71
2022/10/24 14:00:20;;;;;;;5.07;2.25;;;19.20;99.90;;;;;;5034321;28;20296;-70
2022/10/24 14:03:15;;;;;;;0.40;0.40;;;19.10;99.90;;;;;;5028474;28;20214;-69
2022/10/24 14:06:07;;;;;;;0.40;0.40;;;19.10;99.90;;;;;;5034470;28;20197;-70
2022/10/24 14:08:57;;;;;;;0.40;0.40;;;19.10;99.90;;;;;;5018818;28;20309;-70
2022/10/24 14:11:55;;;;;;;0.40;0.40;;;19.10;99.90;;;;;;5022408;28;20210;-68
2022/10/24 14:14:48;;;;;;;0.40;0.40;;;19.10;99.90;;;;;;5029004;28;20220;-69
2022/10/24 14:17:36;;;;;;;0.40;0.40;;;19.20;99.90;;;;;;5039030;28;20352;-69
2022/10/24 14:20:26;;;;;;;0.40;0.40;;;19.20;99.90;;;;;;5034264;28;20713;-69
2022/10/24 14:23:24;;;;;;;0.50;0.50;;;19.30;99.90;;;;;;5034166;28;20776;-69
2022/10/24 14:26:17;;;;;;;0.40;0.40;;;19.40;99.90;;;;;;5043025;28;20201;-68
2022/10/24 14:29:05;;;;;;;0.40;0.40;;;19.50;99.90;;;;;;5053546;28;20205;-69
2022/10/24 14:31:59;;;;;;;0.40;0.40;;;19.50;99.90;;;;;;5054573;28;20727;-69
2022/10/24 14:34:49;;;;;;;17.85;16.58;;;19.50;99.90;;;;;;5041914;28;20686;-69
2022/10/24 14:37:38;;;;;;;0.40;0.40;;;19.40;99.90;;;;;;5041747;28;20202;-69
2022/10/24 14:40:26;;;;;;;0.40;0.40;;;19.30;99.90;;;;;;5053167;28;20300;-69
2022/10/24 14:43:18;;;;;;;0.40;0.40;;;19.20;99.90;;;;;;5046301;28;20361;-69
2022/10/24 14:46:32;;;;;;;0.40;0.40;;;19.20;99.90;;;;;;5041255;28;20202;-70
2022/10/24 14:49:29;;;;;;;0.40;0.40;;;19.20;99.90;;;;;;5050576;28;20697;-69
2022/10/24 14:52:21;;;;;;;0.40;0.40;;;19.20;99.90;;;;;;5052876;28;20806;-69
2022/10/24 14:55:20;;;;;;;0.40;0.40;;;19.10;99.90;;;;;;5052565;28;20201;-70
2022/10/24 14:58:22;;;;;;;0.40;0.40;;;19.10;99.90;;;;;;5052101;28;20653;-69
2022/10/24 15:01:17;;;;;;;0.40;0.40;;;19.00;99.90;;;;;;5053055;28;20274;-70